sensor_id;sensor_type;location;lat;lon;timestamp;pressure;altitude;pressure_sealevel;temperature;humidity
52307;BME280;38249;48.920;12.882;2023-01-29T00:01:11;97978.31;;;1.59;49.01
52307;BME280;38249;48.920;12.882;2023-01-29T00:03:38;97973.81;;;1.59;49.29
52307;BME280;38249;48.920;12.882;2023-01-29T00:06:06;97979.31;;;1.82;48.22
52307;BME280;38249;48.920;12.882;2023-01-29T00:08:33;97977.59;;;1.75;48.59
52307;BME280;38249;48.920;12.882;2023-01-29T00:11:00;97979.69;;;1.73;48.39
52307;BME280;38249;48.920;12.882;2023-01-29T00:13:27;97968.50;;;1.59;48.63
52307;BME280;38249;48.920;12.882;2023-01-29T00:15:54;97973.56;;;1.61;48.40
52307;BME280;38249;48.920;12.882;2023-01-29T00:18:23;97970.78;;;1.80;48.89
52307;BME280;38249;48.920;12.882;2023-01-29T00:20:50;97960.63;;;1.76;48.83
52307;BME280;38249;48.920;12.882;2023-01-29T00:23:16;97962.50;;;1.52;48.19
52307;BME280;38249;48.920;12.882;2023-01-29T00:25:43;97968.16;;;1.56;48.37
52307;BME280;38249;48.920;12.882;2023-01-29T00:28:10;97972.91;;;1.42;48.75
52307;BME280;38249;48.920;12.882;2023-01-29T00:30:37;97969.34;;;1.25;48.96
52307;BME280;38249;48.920;12.882;2023-01-29T00:33:04;97965.78;;;1.19;48.67
52307;BME280;38249;48.920;12.882;2023-01-29T00:35:32;97963.94;;;1.19;49.05
52307;BME280;38249;48.920;12.882;2023-01-29T00:37:59;97955.50;;;0.99;48.92
52307;BME280;38249;48.920;12.882;2023-01-29T00:40:26;97961.41;;;1.01;49.26
52307;BME280;38249;48.920;12.882;2023-01-29T00:42:52;97959.88;;;0.93;49.00
52307;BME280;38249;48.920;12.882;2023-01-29T00:45:36;97968.41;;;0.95;49.11
52307;BME280;38249;48.920;12.882;2023-01-29T00:48:03;97967.16;;;1.10;49.35
52307;BME280;38249;48.920;12.882;2023-01-29T00:50:31;97958.63;;;1.19;49.36
52307;BME280;38249;48.920;12.882;2023-01-29T00:52:58;97958.03;;;0.82;49.41
52307;BME280;38249;48.920;12.882;2023-01-29T00:55:24;97961.94;;;0.79;48.92
52307;BME280;38249;48.920;12.882;2023-01-29T00:57:51;97972.88;;;0.83;49.13
52307;BME280;38249;48.920;12.882;2023-01-29T01:00:18;97976.94;;;0.97;48.81
52307;BME280;38249;48.920;12.882;2023-01-29T01:02:45;97972.00;;;1.01;49.19
52307;BME280;38249;48.920;12.882;2023-01-29T01:05:29;97972.25;;;0.99;49.02
52307;BME280;38249;48.920;12.882;2023-01-29T01:07:57;97976.41;;;1.19;48.79
52307;BME280;38249;48.920;12.882;2023-01-29T01:10:26;97963.81;;;1.26;49.00
52307;BME280;38249;48.920;12.882;2023-01-29T01:12:54;97963.56;;;1.28;49.06
52307;BME280;38249;48.920;12.882;2023-01-29T01:15:23;97967.25;;;1.27;48.74
52307;BME280;38249;48.920;12.882;2023-01-29T01:17:53;97953.41;;;1.36;48.61
52307;BME280;38249;48.920;12.882;2023-01-29T01:20:20;97946.25;;;1.25;48.51
52307;BME280;38249;48.920;12.882;2023-01-29T01:22:47;97949.75;;;1.26;48.85
52307;BME280;38249;48.920;12.882;2023-01-29T01:25:15;97949.28;;;1.29;48.48
52307;BME280;38249;48.920;12.882;2023-01-29T01:27:43;97951.47;;;1.20;48.21
52307;BME280;38249;48.920;12.882;2023-01-29T01:30:11;97960.47;;;1.19;48.83
52307;BME280;38249;48.920;12.882;2023-01-29T01:32:38;97957.81;;;0.95;49.17
52307;BME280;38249;48.920;12.882;2023-01-29T01:35:06;97960.69;;;1.06;48.78
52307;BME280;38249;48.920;12.882;2023-01-29T01:37:33;97953.88;;;0.86;49.29
52307;BME280;38249;48.920;12.882;2023-01-29T01:40:02;97950.28;;;0.80;49.29
52307;BME280;38249;48.920;12.882;2023-01-29T01:42:31;97948.22;;;0.82;49.19
52307;BME280;38249;48.920;12.882;2023-01-29T01:44:59;97952.16;;;0.80;49.08
52307;BME280;38249;48.920;12.882;2023-01-29T01:47:33;97951.34;;;0.91;48.71
52307;BME280;38249;48.920;12.882;2023-01-29T01:50:04;97949.72;;;0.90;48.62
52307;BME280;38249;48.920;12.882;2023-01-29T01:52:35;97957.00;;;0.95;48.72
52307;BME280;38249;48.920;12.882;2023-01-29T01:55:05;97949.63;;;0.97;48.84
52307;BME280;38249;48.920;12.882;2023-01-29T01:57:34;97946.28;;;1.01;48.86
52307;BME280;38249;48.920;12.882;2023-01-29T02:00:06;97949.28;;;1.05;48.74
52307;BME280;38249;48.920;12.882;2023-01-29T02:02:38;97944.31;;;0.85;49.01
52307;BME280;38249;48.920;12.882;2023-01-29T02:05:24;97937.59;;;0.71;49.09
52307;BME280;38249;48.920;12.882;2023-01-29T02:08:10;97940.81;;;0.61;49.08
52307;BME280;38249;48.920;12.882;2023-01-29T02:10:54;97943.44;;;0.49;49.26
52307;BME280;38249;48.920;12.882;2023-01-29T02:13:22;97956.72;;;0.61;49.57
52307;BME280;38249;48.920;12.882;2023-01-29T02:15:49;97953.44;;;0.35;49.48
52307;BME280;38249;48.920;12.882;2023-01-29T02:18:16;97958.19;;;0.45;49.17
52307;BME280;38249;48.920;12.882;2023-01-29T02:20:48;97957.59;;;0.43;49.60
52307;BME280;38249;48.920;12.882;2023-01-29T02:26:19;97938.56;;;0.34;49.41
52307;BME280;38249;48.920;12.882;2023-01-29T02:28:55;97958.59;;;0.30;49.53
52307;BME280;38249;48.920;12.882;2023-01-29T02:31:50;97953.19;;;0.37;49.34
52307;BME280;38249;48.920;12.882;2023-01-29T02:34:25;97951.13;;;0.39;49.34
52307;BME280;38249;48.920;12.882;2023-01-29T02:36:59;97962.78;;;0.38;49.20
52307;BME280;38249;48.920;12.882;2023-01-29T02:39:31;97955.72;;;0.32;49.21
52307;BME280;38249;48.920;12.882;2023-01-29T02:42:05;97969.09;;;0.37;49.12
52307;BME280;38249;48.920;12.882;2023-01-29T02:44:40;97963.94;;;0.42;49.12
52307;BME280;38249;48.920;12.882;2023-01-29T02:47:14;97954.47;;;0.34;48.96
52307;BME280;38249;48.920;12.882;2023-01-29T02:49:46;97959.84;;;0.27;49.19
52307;BME280;38249;48.920;12.882;2023-01-29T02:52:17;97957.94;;;0.35;48.93
52307;BME280;38249;48.920;12.882;2023-01-29T02:54:47;97970.13;;;0.36;48.96
52307;BME280;38249;48.920;12.882;2023-01-29T02:57:19;97967.25;;;0.37;49.04
52307;BME280;38249;48.920;12.882;2023-01-29T02:59:51;97971.44;;;0.45;48.90
52307;BME280;38249;48.920;12.882;2023-01-29T03:02:23;97965.91;;;0.46;49.08
52307;BME280;38249;48.920;12.882;2023-01-29T03:04:56;97962.34;;;0.53;48.91
52307;BME280;38249;48.920;12.882;2023-01-29T03:07:28;97962.69;;;0.56;48.70
52307;BME280;38249;48.920;12.882;2023-01-29T03:13:40;97953.50;;;0.59;48.62
52307;BME280;38249;48.920;12.882;2023-01-29T03:16:14;97958.81;;;0.59;48.56
52307;BME280;38249;48.920;12.882;2023-01-29T03:18:48;97949.69;;;0.66;48.82
52307;BME280;38249;48.920;12.882;2023-01-29T03:21:19;97958.34;;;0.62;48.41
52307;BME280;38249;48.920;12.882;2023-01-29T03:24:05;97957.06;;;0.53;48.70
52307;BME280;38249;48.920;12.882;2023-01-29T03:26:52;97965.47;;;0.19;49.05
52307;BME280;38249;48.920;12.882;2023-01-29T03:29:39;97956.53;;;0.32;49.11
52307;BME280;38249;48.920;12.882;2023-01-29T03:32:27;97956.88;;;0.36;49.07
52307;BME280;38249;48.920;12.882;2023-01-29T03:34:57;97956.66;;;0.37;48.90
52307;BME280;38249;48.920;12.882;2023-01-29T03:37:31;97956.75;;;0.30;48.90
52307;BME280;38249;48.920;12.882;2023-01-29T03:40:00;97947.13;;;0.18;49.22
52307;BME280;38249;48.920;12.882;2023-01-29T03:42:30;97958.03;;;0.28;48.88
52307;BME280;38249;48.920;12.882;2023-01-29T03:45:05;97967.19;;;0.44;48.37
52307;BME280;38249;48.920;12.882;2023-01-29T03:47:42;97970.84;;;0.43;48.47
52307;BME280;38249;48.920;12.882;2023-01-29T03:50:19;97971.06;;;0.41;48.24
52307;BME280;38249;48.920;12.882;2023-01-29T03:52:50;97971.19;;;0.46;48.81
52307;BME280;38249;48.920;12.882;2023-01-29T03:55:21;97982.22;;;0.62;47.64
52307;BME280;38249;48.920;12.882;2023-01-29T03:57:54;97980.78;;;0.47;48.25
52307;BME280;38249;48.920;12.882;2023-01-29T04:00:26;97975.16;;;0.56;47.87
52307;BME280;38249;48.920;12.882;2023-01-29T04:03:02;97981.38;;;0.61;47.69
52307;BME280;38249;48.920;12.882;2023-01-29T04:05:35;97989.09;;;0.63;47.48
52307;BME280;38249;48.920;12.882;2023-01-29T04:08:09;97987.03;;;0.65;47.88
52307;BME280;38249;48.920;12.882;2023-01-29T04:10:37;97991.66;;;0.70;47.87
52307;BME280;38249;48.920;12.882;2023-01-29T04:13:08;97988.91;;;0.76;47.58
52307;BME280;38249;48.920;12.882;2023-01-29T04:15:39;97987.88;;;0.77;47.65
52307;BME280;38249;48.920;12.882;2023-01-29T04:18:09;97979.13;;;0.77;48.06
52307;BME280;38249;48.920;12.882;2023-01-29T04:20:35;97973.69;;;0.72;47.37
52307;BME280;38249;48.920;12.882;2023-01-29T04:23:05;97979.59;;;0.85;47.51
52307;BME280;38249;48.920;12.882;2023-01-29T04:25:40;97974.28;;;0.85;47.10
52307;BME280;38249;48.920;12.882;2023-01-29T04:28:14;97973.81;;;0.89;47.03
52307;BME280;38249;48.920;12.882;2023-01-29T04:30:47;97969.22;;;0.84;47.06
52307;BME280;38249;48.920;12.882;2023-01-29T04:33:28;97963.44;;;0.87;46.88
52307;BME280;38249;48.920;12.882;2023-01-29T04:36:09;97974.50;;;0.84;46.71
52307;BME280;38249;48.920;12.882;2023-01-29T04:38:48;97981.91;;;0.82;46.78
52307;BME280;38249;48.920;12.882;2023-01-29T04:41:21;97982.91;;;0.81;46.53
52307;BME280;38249;48.920;12.882;2023-01-29T04:43:57;97975.06;;;0.74;46.44
52307;BME280;38249;48.920;12.882;2023-01-29T04:46:28;97965.75;;;0.72;46.45
52307;BME280;38249;48.920;12.882;2023-01-29T04:49:11;97973.59;;;0.78;46.32
52307;BME280;38249;48.920;12.882;2023-01-29T04:51:45;97976.34;;;0.72;46.09
52307;BME280;38249;48.920;12.882;2023-01-29T04:54:19;97973.69;;;0.72;46.71
52307;BME280;38249;48.920;12.882;2023-01-29T04:56:54;97972.66;;;0.73;45.94
52307;BME280;38249;48.920;12.882;2023-01-29T04:59:26;97984.88;;;0.74;46.19
52307;BME280;38249;48.920;12.882;2023-01-29T05:01:54;97978.03;;;0.54;46.01
52307;BME280;38249;48.920;12.882;2023-01-29T05:04:23;97983.59;;;0.64;46.10
52307;BME280;38249;48.920;12.882;2023-01-29T05:06:51;97986.09;;;0.59;46.38
52307;BME280;38249;48.920;12.882;2023-01-29T05:09:18;97983.91;;;0.56;46.02
52307;BME280;38249;48.920;12.882;2023-01-29T05:11:46;97977.13;;;0.60;46.12
52307;BME280;38249;48.920;12.882;2023-01-29T05:14:17;97978.16;;;0.59;45.89
52307;BME280;38249;48.920;12.882;2023-01-29T05:16:46;97988.72;;;0.47;45.83
52307;BME280;38249;48.920;12.882;2023-01-29T05:19:14;97978.06;;;0.36;46.24
52307;BME280;38249;48.920;12.882;2023-01-29T05:21:44;97976.63;;;0.52;45.60
52307;BME280;38249;48.920;12.882;2023-01-29T05:24:14;97976.50;;;0.46;45.84
52307;BME280;38249;48.920;12.882;2023-01-29T05:26:42;97969.31;;;0.35;45.70
52307;BME280;38249;48.920;12.882;2023-01-29T05:29:27;97967.72;;;0.34;45.68
52307;BME280;38249;48.920;12.882;2023-01-29T05:31:53;97967.47;;;0.36;45.94
52307;BME280;38249;48.920;12.882;2023-01-29T05:34:20;97970.38;;;0.34;45.84
52307;BME280;38249;48.920;12.882;2023-01-29T05:36:48;97962.69;;;0.44;45.71
52307;BME280;38249;48.920;12.882;2023-01-29T05:39:14;97969.00;;;0.43;45.61
52307;BME280;38249;48.920;12.882;2023-01-29T05:41:41;97965.91;;;0.46;45.56
52307;BME280;38249;48.920;12.882;2023-01-29T05:44:08;97970.31;;;0.53;45.64
52307;BME280;38249;48.920;12.882;2023-01-29T05:46:35;97965.44;;;0.49;45.23
52307;BME280;38249;48.920;12.882;2023-01-29T05:49:01;97961.41;;;0.47;45.39
52307;BME280;38249;48.920;12.882;2023-01-29T05:51:28;97963.81;;;0.37;45.29
52307;BME280;38249;48.920;12.882;2023-01-29T05:53:56;97968.09;;;0.49;45.42
52307;BME280;38249;48.920;12.882;2023-01-29T05:56:22;97968.31;;;0.36;45.39
52307;BME280;38249;48.920;12.882;2023-01-29T05:58:49;97958.25;;;0.26;45.29
52307;BME280;38249;48.920;12.882;2023-01-29T06:01:18;97970.44;;;0.27;45.26
52307;BME280;38249;48.920;12.882;2023-01-29T06:03:44;97972.56;;;0.07;45.30
52307;BME280;38249;48.920;12.882;2023-01-29T06:06:11;97970.94;;;0.06;45.42
52307;BME280;38249;48.920;12.882;2023-01-29T06:08:38;97963.13;;;0.11;45.13
52307;BME280;38249;48.920;12.882;2023-01-29T06:11:09;97958.69;;;0.23;45.24
52307;BME280;38249;48.920;12.882;2023-01-29T06:13:36;97980.28;;;0.08;45.09
52307;BME280;38249;48.920;12.882;2023-01-29T06:16:04;97980.78;;;0.17;45.03
52307;BME280;38249;48.920;12.882;2023-01-29T06:18:31;97980.72;;;0.05;45.26
52307;BME280;38249;48.920;12.882;2023-01-29T06:20:59;97982.41;;;0.18;45.67
52307;BME280;38249;48.920;12.882;2023-01-29T06:23:26;97984.75;;;0.08;45.49
52307;BME280;38249;48.920;12.882;2023-01-29T06:25:52;97988.56;;;0.00;45.75
52307;BME280;38249;48.920;12.882;2023-01-29T06:28:20;97990.06;;;0.08;45.43
52307;BME280;38249;48.920;12.882;2023-01-29T06:30:46;97991.50;;;-0.08;45.86
52307;BME280;38249;48.920;12.882;2023-01-29T06:33:13;97975.75;;;-0.03;45.30
52307;BME280;38249;48.920;12.882;2023-01-29T06:35:39;97979.84;;;-0.07;44.93
52307;BME280;38249;48.920;12.882;2023-01-29T06:38:06;97980.78;;;-0.13;45.36
52307;BME280;38249;48.920;12.882;2023-01-29T06:40:32;97978.13;;;-0.13;45.16
52307;BME280;38249;48.920;12.882;2023-01-29T06:42:59;97980.09;;;-0.27;44.57
52307;BME280;38249;48.920;12.882;2023-01-29T06:45:27;97973.09;;;-0.21;44.77
52307;BME280;38249;48.920;12.882;2023-01-29T06:47:53;97979.09;;;-0.26;45.23
52307;BME280;38249;48.920;12.882;2023-01-29T06:50:21;97969.66;;;-0.22;44.77
52307;BME280;38249;48.920;12.882;2023-01-29T06:52:47;97967.13;;;-0.17;44.98
52307;BME280;38249;48.920;12.882;2023-01-29T06:55:14;97969.13;;;-0.12;45.18
52307;BME280;38249;48.920;12.882;2023-01-29T06:57:40;97963.03;;;-0.13;44.93
52307;BME280;38249;48.920;12.882;2023-01-29T07:00:08;97953.50;;;-0.02;45.40
52307;BME280;38249;48.920;12.882;2023-01-29T07:02:36;97947.91;;;0.06;45.27
52307;BME280;38249;48.920;12.882;2023-01-29T07:05:03;97952.63;;;0.04;45.35
52307;BME280;38249;48.920;12.882;2023-01-29T07:07:29;97952.25;;;0.01;44.98
52307;BME280;38249;48.920;12.882;2023-01-29T07:09:56;97946.97;;;0.01;45.38
52307;BME280;38249;48.920;12.882;2023-01-29T07:12:22;97949.09;;;0.10;45.17
52307;BME280;38249;48.920;12.882;2023-01-29T07:14:49;97961.09;;;0.13;45.29
52307;BME280;38249;48.920;12.882;2023-01-29T07:17:15;97962.81;;;0.19;45.39
52307;BME280;38249;48.920;12.882;2023-01-29T07:19:43;97964.47;;;0.32;45.30
52307;BME280;38249;48.920;12.882;2023-01-29T07:22:09;97968.63;;;0.28;45.57
52307;BME280;38249;48.920;12.882;2023-01-29T07:24:36;97973.59;;;0.36;45.48
52307;BME280;38249;48.920;12.882;2023-01-29T07:27:02;97967.84;;;0.39;45.28
52307;BME280;38249;48.920;12.882;2023-01-29T07:29:29;97973.94;;;0.40;45.49
52307;BME280;38249;48.920;12.882;2023-01-29T07:31:55;97977.78;;;0.44;45.19
52307;BME280;38249;48.920;12.882;2023-01-29T07:34:22;97971.78;;;0.48;45.46
52307;BME280;38249;48.920;12.882;2023-01-29T07:36:52;97979.22;;;0.70;45.22
52307;BME280;38249;48.920;12.882;2023-01-29T07:39:18;97993.16;;;0.65;45.07
52307;BME280;38249;48.920;12.882;2023-01-29T07:41:45;97990.41;;;0.72;45.04
52307;BME280;38249;48.920;12.882;2023-01-29T07:44:11;97988.56;;;0.73;45.42
52307;BME280;38249;48.920;12.882;2023-01-29T07:46:37;97990.53;;;0.77;45.32
52307;BME280;38249;48.920;12.882;2023-01-29T07:49:04;97988.78;;;0.83;45.03
52307;BME280;38249;48.920;12.882;2023-01-29T07:51:30;97992.63;;;0.87;44.75
52307;BME280;38249;48.920;12.882;2023-01-29T07:53:58;97985.72;;;0.98;44.87
52307;BME280;38249;48.920;12.882;2023-01-29T07:56:25;97996.75;;;0.83;44.68
52307;BME280;38249;48.920;12.882;2023-01-29T07:58:51;97994.34;;;0.81;44.38
52307;BME280;38249;48.920;12.882;2023-01-29T08:01:18;97998.50;;;0.77;44.78
52307;BME280;38249;48.920;12.882;2023-01-29T08:03:44;98001.25;;;0.71;44.97
52307;BME280;38249;48.920;12.882;2023-01-29T08:06:10;98004.25;;;0.74;44.89
52307;BME280;38249;48.920;12.882;2023-01-29T08:08:37;98006.31;;;0.72;44.66
52307;BME280;38249;48.920;12.882;2023-01-29T08:11:05;98011.19;;;0.87;44.75
52307;BME280;38249;48.920;12.882;2023-01-29T08:13:32;98012.66;;;0.83;45.12
52307;BME280;38249;48.920;12.882;2023-01-29T08:15:59;98020.41;;;0.84;44.43
52307;BME280;38249;48.920;12.882;2023-01-29T08:18:26;98024.78;;;0.79;44.57
52307;BME280;38249;48.920;12.882;2023-01-29T08:20:58;98019.38;;;0.97;44.53
52307;BME280;38249;48.920;12.882;2023-01-29T08:23:24;98021.69;;;0.82;44.66
52307;BME280;38249;48.920;12.882;2023-01-29T08:25:51;98020.50;;;0.78;44.58
52307;BME280;38249;48.920;12.882;2023-01-29T08:28:19;98028.63;;;0.95;44.82
52307;BME280;38249;48.920;12.882;2023-01-29T08:30:46;98036.47;;;0.90;44.94
52307;BME280;38249;48.920;12.882;2023-01-29T08:33:12;98033.03;;;1.01;44.52
52307;BME280;38249;48.920;12.882;2023-01-29T08:35:38;98031.97;;;1.02;44.21
52307;BME280;38249;48.920;12.882;2023-01-29T08:38:05;98031.16;;;1.01;44.49
52307;BME280;38249;48.920;12.882;2023-01-29T08:40:33;98042.13;;;1.17;44.77
52307;BME280;38249;48.920;12.882;2023-01-29T08:43:01;98039.47;;;1.17;44.90
52307;BME280;38249;48.920;12.882;2023-01-29T08:45:29;98048.63;;;1.21;44.91
52307;BME280;38249;48.920;12.882;2023-01-29T08:47:56;98051.25;;;1.09;44.50
52307;BME280;38249;48.920;12.882;2023-01-29T08:50:22;98049.97;;;1.12;44.19
52307;BME280;38249;48.920;12.882;2023-01-29T08:52:49;98059.63;;;0.94;44.04
52307;BME280;38249;48.920;12.882;2023-01-29T08:55:15;98064.88;;;1.01;44.39
52307;BME280;38249;48.920;12.882;2023-01-29T08:57:42;98067.75;;;0.99;44.71
52307;BME280;38249;48.920;12.882;2023-01-29T09:00:09;98067.19;;;1.09;44.44
52307;BME280;38249;48.920;12.882;2023-01-29T09:02:37;98072.00;;;1.12;44.50
52307;BME280;38249;48.920;12.882;2023-01-29T09:05:04;98074.91;;;1.11;44.71
52307;BME280;38249;48.920;12.882;2023-01-29T09:07:31;98070.97;;;1.13;44.38
52307;BME280;38249;48.920;12.882;2023-01-29T09:09:58;98062.91;;;1.20;44.35
52307;BME280;38249;48.920;12.882;2023-01-29T09:12:25;98064.31;;;1.34;43.76
52307;BME280;38249;48.920;12.882;2023-01-29T09:14:51;98065.00;;;1.41;43.67
52307;BME280;38249;48.920;12.882;2023-01-29T09:17:18;98071.25;;;1.47;43.82
52307;BME280;38249;48.920;12.882;2023-01-29T09:19:46;98065.16;;;1.58;43.24
52307;BME280;38249;48.920;12.882;2023-01-29T09:22:14;98065.94;;;1.35;43.66
52307;BME280;38249;48.920;12.882;2023-01-29T09:24:40;98069.50;;;1.29;43.77
52307;BME280;38249;48.920;12.882;2023-01-29T09:27:07;98068.00;;;1.21;43.46
52307;BME280;38249;48.920;12.882;2023-01-29T09:29:34;98056.19;;;1.06;44.17
52307;BME280;38249;48.920;12.882;2023-01-29T09:32:00;98053.78;;;1.04;43.75
52307;BME280;38249;48.920;12.882;2023-01-29T09:34:27;98055.97;;;1.07;44.14
52307;BME280;38249;48.920;12.882;2023-01-29T09:36:54;98045.41;;;1.31;44.19
52307;BME280;38249;48.920;12.882;2023-01-29T09:39:21;98046.75;;;1.33;43.48
52307;BME280;38249;48.920;12.882;2023-01-29T09:41:53;98050.81;;;1.48;43.71
52307;BME280;38249;48.920;12.882;2023-01-29T09:44:29;98047.38;;;1.47;43.51
52307;BME280;38249;48.920;12.882;2023-01-29T09:47:01;98050.13;;;1.40;43.80
52307;BME280;38249;48.920;12.882;2023-01-29T09:49:34;98044.13;;;1.57;43.34
52307;BME280;38249;48.920;12.882;2023-01-29T09:52:09;98043.22;;;1.63;43.42
52307;BME280;38249;48.920;12.882;2023-01-29T09:54:47;98046.97;;;1.79;43.09
52307;BME280;38249;48.920;12.882;2023-01-29T09:57:22;98042.25;;;1.93;43.03
52307;BME280;38249;48.920;12.882;2023-01-29T09:59:50;98044.09;;;1.81;43.09
52307;BME280;38249;48.920;12.882;2023-01-29T10:02:35;98038.44;;;1.89;42.64
52307;BME280;38249;48.920;12.882;2023-01-29T10:05:15;98031.84;;;1.91;42.50
52307;BME280;38249;48.920;12.882;2023-01-29T10:10:49;98033.47;;;1.81;43.36
52307;BME280;38249;48.920;12.882;2023-01-29T10:13:26;98034.38;;;1.98;43.15
52307;BME280;38249;48.920;12.882;2023-01-29T10:16:05;98031.91;;;2.08;43.53
52307;BME280;38249;48.920;12.882;2023-01-29T10:18:51;98032.84;;;2.14;43.23
52307;BME280;38249;48.920;12.882;2023-01-29T10:21:44;98031.06;;;2.20;43.02
52307;BME280;38249;48.920;12.882;2023-01-29T10:24:23;98026.81;;;2.19;42.82
52307;BME280;38249;48.920;12.882;2023-01-29T10:26:51;98028.00;;;2.11;43.13
52307;BME280;38249;48.920;12.882;2023-01-29T10:29:19;98035.63;;;2.07;43.32
52307;BME280;38249;48.920;12.882;2023-01-29T10:31:49;98022.34;;;2.07;43.42
52307;BME280;38249;48.920;12.882;2023-01-29T10:34:22;98012.78;;;1.94;42.75
52307;BME280;38249;48.920;12.882;2023-01-29T10:36:53;98018.78;;;1.90;43.16
52307;BME280;38249;48.920;12.882;2023-01-29T10:39:23;98017.41;;;1.99;43.27
52307;BME280;38249;48.920;12.882;2023-01-29T10:42:03;98021.19;;;2.03;43.06
52307;BME280;38249;48.920;12.882;2023-01-29T10:44:44;98011.38;;;2.04;42.67
52307;BME280;38249;48.920;12.882;2023-01-29T10:47:27;98010.56;;;2.03;42.94
52307;BME280;38249;48.920;12.882;2023-01-29T10:50:13;98000.47;;;2.17;43.18
52307;BME280;38249;48.920;12.882;2023-01-29T10:52:56;98007.97;;;2.20;42.55
52307;BME280;38249;48.920;12.882;2023-01-29T10:55:39;98000.84;;;2.38;42.45
52307;BME280;38249;48.920;12.882;2023-01-29T10:58:15;98000.19;;;2.59;42.63
52307;BME280;38249;48.920;12.882;2023-01-29T11:00:44;97996.63;;;2.54;42.43
52307;BME280;38249;48.920;12.882;2023-01-29T11:03:14;97995.88;;;2.87;42.37
52307;BME280;38249;48.920;12.882;2023-01-29T11:05:44;97990.94;;;2.96;42.13
52307;BME280;38249;48.920;12.882;2023-01-29T11:08:16;97984.69;;;3.02;42.60
52307;BME280;38249;48.920;12.882;2023-01-29T11:10:51;97974.44;;;3.11;41.52
52307;BME280;38249;48.920;12.882;2023-01-29T11:13:21;97962.75;;;3.12;42.11
52307;BME280;38249;48.920;12.882;2023-01-29T11:15:51;97958.22;;;2.95;41.29
52307;BME280;38249;48.920;12.882;2023-01-29T11:18:18;97957.59;;;3.05;41.27
52307;BME280;38249;48.920;12.882;2023-01-29T11:20:45;97948.53;;;3.23;40.81
52307;BME280;38249;48.920;12.882;2023-01-29T11:23:25;97943.63;;;3.15;40.62
52307;BME280;38249;48.920;12.882;2023-01-29T11:25:55;97946.28;;;2.81;40.67
52307;BME280;38249;48.920;12.882;2023-01-29T11:28:36;97939.50;;;2.73;40.85
52307;BME280;38249;48.920;12.882;2023-01-29T11:31:03;97937.22;;;2.65;40.91
52307;BME280;38249;48.920;12.882;2023-01-29T11:33:40;97928.78;;;2.68;41.36
52307;BME280;38249;48.920;12.882;2023-01-29T11:36:19;97928.19;;;2.83;41.67
52307;BME280;38249;48.920;12.882;2023-01-29T11:38:46;97925.56;;;2.66;41.42
52307;BME280;38249;48.920;12.882;2023-01-29T11:41:15;97926.84;;;2.80;41.54
52307;BME280;38249;48.920;12.882;2023-01-29T11:43:46;97928.38;;;2.59;41.33
52307;BME280;38249;48.920;12.882;2023-01-29T11:46:14;97937.91;;;2.72;40.63
52307;BME280;38249;48.920;12.882;2023-01-29T11:48:44;97939.56;;;2.78;41.10
52307;BME280;38249;48.920;12.882;2023-01-29T11:51:20;97939.56;;;2.78;41.35
52307;BME280;38249;48.920;12.882;2023-01-29T11:53:50;97925.41;;;2.73;41.24
52307;BME280;38249;48.920;12.882;2023-01-29T11:56:25;97926.84;;;2.80;41.08
52307;BME280;38249;48.920;12.882;2023-01-29T11:58:52;97923.63;;;3.12;40.26
52307;BME280;38249;48.920;12.882;2023-01-29T12:01:29;97920.31;;;3.05;40.74
52307;BME280;38249;48.920;12.882;2023-01-29T12:03:56;97914.16;;;2.54;41.95
52307;BME280;38249;48.920;12.882;2023-01-29T12:06:29;97915.56;;;2.56;41.44
52307;BME280;38249;48.920;12.882;2023-01-29T12:09:01;97917.97;;;2.58;41.73
52307;BME280;38249;48.920;12.882;2023-01-29T12:11:30;97911.59;;;2.59;41.46
52307;BME280;38249;48.920;12.882;2023-01-29T12:13:59;97916.34;;;2.57;41.75
52307;BME280;38249;48.920;12.882;2023-01-29T12:16:29;97911.13;;;2.62;41.60
52307;BME280;38249;48.920;12.882;2023-01-29T12:19:08;97904.59;;;2.69;41.90
52307;BME280;38249;48.920;12.882;2023-01-29T12:21:43;97893.22;;;2.57;41.29
52307;BME280;38249;48.920;12.882;2023-01-29T12:24:27;97885.81;;;2.59;41.72
52307;BME280;38249;48.920;12.882;2023-01-29T12:27:04;97875.59;;;2.51;41.56
52307;BME280;38249;48.920;12.882;2023-01-29T12:29:39;97873.41;;;2.48;41.70
52307;BME280;38249;48.920;12.882;2023-01-29T12:32:13;97871.31;;;2.50;41.63
52307;BME280;38249;48.920;12.882;2023-01-29T12:34:47;97866.47;;;2.47;42.25
52307;BME280;38249;48.920;12.882;2023-01-29T12:37:20;97860.44;;;2.51;42.02
52307;BME280;38249;48.920;12.882;2023-01-29T12:39:50;97855.75;;;2.42;41.61
52307;BME280;38249;48.920;12.882;2023-01-29T12:42:19;97858.41;;;2.42;42.49
52307;BME280;38249;48.920;12.882;2023-01-29T12:44:50;97866.31;;;2.37;42.74
52307;BME280;38249;48.920;12.882;2023-01-29T12:47:21;97867.91;;;2.38;43.03
52307;BME280;38249;48.920;12.882;2023-01-29T12:49:52;97865.66;;;2.46;41.88
52307;BME280;38249;48.920;12.882;2023-01-29T12:52:27;97867.63;;;2.51;42.14
52307;BME280;38249;48.920;12.882;2023-01-29T12:55:01;97866.72;;;2.45;42.09
52307;BME280;38249;48.920;12.882;2023-01-29T12:57:37;97860.13;;;2.48;41.99
52307;BME280;38249;48.920;12.882;2023-01-29T13:00:10;97856.78;;;2.41;42.57
52307;BME280;38249;48.920;12.882;2023-01-29T13:02:44;97854.72;;;2.43;42.33
52307;BME280;38249;48.920;12.882;2023-01-29T13:05:18;97848.41;;;2.49;42.09
52307;BME280;38249;48.920;12.882;2023-01-29T13:07:48;97850.34;;;2.54;42.71
52307;BME280;38249;48.920;12.882;2023-01-29T13:10:19;97840.53;;;2.37;42.32
52307;BME280;38249;48.920;12.882;2023-01-29T13:12:52;97830.53;;;2.27;43.08
52307;BME280;38249;48.920;12.882;2023-01-29T13:15:22;97848.75;;;2.19;42.05
52307;BME280;38249;48.920;12.882;2023-01-29T13:17:56;97853.00;;;2.20;41.98
52307;BME280;38249;48.920;12.882;2023-01-29T13:20:26;97845.69;;;1.81;42.73
52307;BME280;38249;48.920;12.882;2023-01-29T13:22:56;97856.50;;;1.63;43.19
52307;BME280;38249;48.920;12.882;2023-01-29T13:25:23;97845.41;;;1.66;42.85
52307;BME280;38249;48.920;12.882;2023-01-29T13:27:52;97845.88;;;1.91;43.01